Time;durP1;ratioP1;P1;durP2;ratioP2;P2;SDS_P1;SDS_P2;PMS_P1;PMS_P2;Temp;Humidity;BMP_temperature;BMP_pressure;BME280_temperature;BME280_humidity;BME280_pressure;Samples;Min_cycle;Max_cycle;Signal;HPM_P1;HPM_P2
2021/10/20 00:01:40;;;;;;;13.70;9.53;;;;;;;10.20;87.29;99065.47;1692563;84;21666;-70
2021/10/20 00:04:07;;;;;;;10.35;9.18;;;;;;;10.21;87.36;99068.92;1713737;82;21079;-70
2021/10/20 00:06:33;;;;;;;11.83;9.03;;;;;;;10.22;87.51;99067.98;1700579;82;21044;-70
2021/10/20 00:09:00;;;;;;;14.87;9.67;;;;;;;10.24;87.45;99055.70;1711051;83;20929;-70
2021/10/20 00:11:27;;;;;;;10.37;9.10;;;;;;;10.23;87.58;99044.89;1712509;82;21119;-70
2021/10/20 00:13:53;;;;;;;15.00;9.67;;;;;;;10.24;87.60;99038.27;1667142;83;21781;-70
2021/10/20 00:16:21;;;;;;;11.20;9.83;;;;;;;10.25;87.69;99041.71;1713294;82;21856;-70
2021/10/20 00:18:49;;;;;;;11.12;9.88;;;;;;;10.26;87.92;99030.37;1710218;82;20994;-70
2021/10/20 00:21:21;;;;;;;11.65;9.65;;;;;;;10.27;87.94;99024.24;1711286;82;20988;-70
2021/10/20 00:23:48;;;;;;;13.50;9.80;;;;;;;10.26;87.93;99019.94;1695845;83;21083;-70
2021/10/20 00:26:14;;;;;;;16.55;12.33;;;;;;;10.27;88.01;99028.16;1706173;83;21093;-70
2021/10/20 00:28:41;;;;;;;14.90;11.70;;;;;;;10.27;88.05;99016.41;1702535;82;21916;-70
2021/10/20 00:31:08;;;;;;;12.35;10.00;;;;;;;10.28;88.01;99016.34;1711421;82;20899;-70
2021/10/20 00:33:35;;;;;;;11.18;9.53;;;;;;;10.29;88.12;99005.44;1707559;82;20985;-70
2021/10/20 00:36:02;;;;;;;14.63;10.23;;;;;;;10.33;88.13;99005.63;1706255;82;20965;-70
2021/10/20 00:38:28;;;;;;;12.95;10.43;;;;;;;10.34;88.21;98999.49;1704264;84;21512;-70
2021/10/20 00:40:55;;;;;;;13.62;11.30;;;;;;;10.34;88.27;98996.05;1685102;85;21081;-70
2021/10/20 00:43:24;;;;;;;12.23;9.43;;;;;;;10.34;88.33;98986.45;1706205;84;21536;-70
2021/10/20 00:45:51;;;;;;;12.43;10.40;;;;;;;10.35;88.37;98986.81;1667096;84;21072;-70
2021/10/20 00:48:18;;;;;;;11.60;9.25;;;;;;;10.36;88.45;98985.88;1674008;83;21021;-70
2021/10/20 00:50:45;;;;;;;12.63;10.28;;;;;;;10.38;88.42;98985.32;1681481;84;21019;-70
2021/10/20 00:53:12;;;;;;;13.35;10.28;;;;;;;10.38;88.56;98994.45;1704631;83;21708;-70
2021/10/20 00:55:39;;;;;;;11.15;9.63;;;;;;;10.38;88.60;98997.06;1703120;82;21677;-70
2021/10/20 00:58:06;;;;;;;13.13;9.78;;;;;;;10.38;88.72;98988.41;1702209;83;21524;-69
2021/10/20 01:00:34;;;;;;;11.90;9.55;;;;;;;10.40;88.80;98983.94;1697719;82;20953;-70
2021/10/20 01:03:01;;;;;;;11.18;9.08;;;;;;;10.40;88.84;98978.73;1684319;84;21274;-70
2021/10/20 01:05:28;;;;;;;12.75;10.48;;;;;;;10.42;88.84;98977.70;1707791;82;21086;-70
2021/10/20 01:07:54;;;;;;;11.60;8.65;;;;;;;10.44;88.89;98977.60;1675483;83;21341;-70
2021/10/20 01:10:21;;;;;;;11.50;9.70;;;;;;;10.44;89.05;98957.55;1697191;83;21088;-70
2021/10/20 01:12:48;;;;;;;13.78;9.28;;;;;;;10.46;89.05;98960.09;1685193;84;21071;-70
2021/10/20 01:15:19;;;;;;;10.90;8.78;;;;;;;10.47;89.09;98950.02;1681109;83;20938;-70
2021/10/20 01:17:47;;;;;;;11.22;8.45;;;;;;;10.49;89.22;98941.16;1682546;83;21150;-69
2021/10/20 01:20:16;;;;;;;11.83;9.25;;;;;;;10.51;89.24;98941.92;1680909;84;21012;-69
2021/10/20 01:22:43;;;;;;;9.65;8.40;;;;;;;10.52;89.44;98920.09;1705254;82;20997;-70
2021/10/20 01:25:11;;;;;;;13.35;10.32;;;;;;;10.55;89.31;98924.77;1709646;82;21510;-70
2021/10/20 01:27:39;;;;;;;10.40;9.30;;;;;;;10.57;89.33;98924.22;1712641;82;21044;-70
2021/10/20 01:30:07;;;;;;;;;;;;;;;10.59;89.42;98925.81;1714453;83;21080;-70
2021/10/20 01:32:34;;;;;;;10.85;8.85;;;;;;;10.61;89.53;98920.48;1712528;82;20461;-70
2021/10/20 01:35:00;;;;;;;11.57;9.65;;;;;;;10.63;89.55;98916.02;1704903;82;21538;-70
2021/10/20 01:37:29;;;;;;;12.53;8.05;;;;;;;10.65;89.67;98923.30;1684381;84;21605;-70
2021/10/20 01:39:58;;;;;;;10.28;8.03;;;;;;;10.67;89.69;98903.14;1714807;82;20926;-70
2021/10/20 01:42:26;;;;;;;9.53;7.12;;;;;;;10.70;89.71;98896.45;1687507;83;21967;-70
2021/10/20 01:44:54;;;;;;;10.20;7.45;;;;;;;10.74;89.81;98900.55;1720191;82;21046;-70
2021/10/20 01:47:22;;;;;;;9.70;6.87;;;;;;;10.76;89.85;98883.02;1716330;82;21005;-70
2021/10/20 01:49:49;;;;;;;8.88;7.12;;;;;;;10.78;89.88;98877.21;1694561;83;20972;-70
2021/10/20 01:52:16;;;;;;;7.80;7.00;;;;;;;10.82;89.96;98880.02;1666712;84;21013;-70
2021/10/20 01:54:43;;;;;;;8.08;6.95;;;;;;;10.85;90.01;98873.30;1712577;82;21090;-70
2021/10/20 01:57:09;;;;;;;7.10;6.33;;;;;;;10.90;90.10;98879.09;1715348;82;21051;-70
2021/10/20 01:59:36;;;;;;;7.10;5.90;;;;;;;10.95;90.23;98869.64;1695092;83;21265;-70
2021/10/20 02:02:19;;;;;;;7.70;7.00;;;;;;;10.98;90.22;98867.70;1711147;82;21709;-70
2021/10/20 02:04:47;;;;;;;7.22;6.55;;;;;;;11.01;90.27;98863.19;1713313;82;21759;-70
2021/10/20 02:07:14;;;;;;;7.58;6.33;;;;;;;11.04;90.26;98865.64;1720809;82;21068;-70
2021/10/20 02:09:41;;;;;;;7.00;6.17;;;;;;;11.08;90.41;98863.19;1712952;83;20918;-70
2021/10/20 02:12:08;;;;;;;9.15;7.05;;;;;;;11.10;90.36;98852.19;1713582;82;21063;-69
2021/10/20 02:14:36;;;;;;;7.65;6.08;;;;;;;11.13;90.43;98859.83;1713450;82;21032;-70
2021/10/20 02:17:04;;;;;;;8.55;6.55;;;;;;;11.15;90.51;98861.88;1724057;82;21837;-70
2021/10/20 02:19:31;;;;;;;6.42;5.80;;;;;;;11.18;90.51;98852.55;1708727;82;21147;-70
2021/10/20 02:21:59;;;;;;;6.80;6.08;;;;;;;11.22;90.54;98854.01;1696498;82;21189;-70
2021/10/20 02:24:25;;;;;;;6.97;6.28;;;;;;;11.25;90.60;98848.58;1686037;83;21021;-70
2021/10/20 02:26:52;;;;;;;9.53;5.95;;;;;;;11.29;90.63;98856.61;1712353;82;21680;-70
2021/10/20 02:29:19;;;;;;;8.03;6.87;;;;;;;11.32;90.67;98851.66;1711996;82;20986;-70
2021/10/20 02:33:28;;;;;;;8.13;7.30;;;;;;;11.40;90.70;98838.47;1785914;79;22817;-69
2021/10/20 02:35:55;;;;;;;8.65;6.75;;;;;;;11.37;90.82;98841.28;1754402;80;20899;-69
2021/10/20 02:38:22;;;;;;;10.07;7.63;;;;;;;11.39;90.87;98836.77;1743172;80;21065;-69
2021/10/20 02:40:50;;;;;;;10.60;7.60;;;;;;;11.40;90.83;98830.62;1741003;81;21036;-69
2021/10/20 02:43:17;;;;;;;7.92;7.12;;;;;;;11.43;90.86;98833.52;1773387;80;21560;-69
2021/10/20 02:45:44;;;;;;;9.80;7.78;;;;;;;11.47;90.98;98828.92;1753784;80;21021;-70
2021/10/20 02:48:11;;;;;;;10.13;8.00;;;;;;;11.49;90.96;98827.05;1750717;81;21237;-69
2021/10/20 02:50:38;;;;;;;8.90;8.00;;;;;;;11.51;90.91;98827.77;1705928;83;21587;-69
2021/10/20 02:53:05;;;;;;;8.43;7.47;;;;;;;11.52;91.00;98824.23;1719743;81;23463;-70
2021/10/20 02:55:31;;;;;;;9.68;8.43;;;;;;;11.53;91.01;98820.67;1707336;81;21675;-69
2021/10/20 02:57:58;;;;;;;9.70;8.23;;;;;;;11.55;91.03;98814.88;1716773;82;20939;-69
2021/10/20 03:00:25;;;;;;;9.43;8.47;;;;;;;11.57;91.18;98815.62;1703647;81;21113;-70
2021/10/20 03:02:51;;;;;;;10.05;9.00;;;;;;;11.58;91.18;98809.45;1695596;83;21260;-69
2021/10/20 03:05:18;;;;;;;9.90;8.80;;;;;;;11.59;91.39;98812.41;1702111;81;21073;-69
2021/10/20 03:07:47;;;;;;;9.25;8.35;;;;;;;11.61;91.28;98813.99;1707545;82;20963;-69
2021/10/20 03:10:14;;;;;;;11.43;9.55;;;;;;;11.63;91.29;98815.21;1713413;81;21041;-70
2021/10/20 03:12:42;;;;;;;10.82;9.15;;;;;;;11.64;91.33;98807.25;1712840;82;21537;-69
2021/10/20 03:15:09;;;;;;;11.35;9.50;;;;;;;11.65;91.29;98807.64;1709586;83;21918;-69
2021/10/20 03:17:38;;;;;;;12.30;9.55;;;;;;;11.67;91.37;98799.67;1694267;82;21524;-69
2021/10/20 03:20:08;;;;;;;14.20;9.93;;;;;;;11.69;91.39;98805.65;1705949;81;22348;-69
2021/10/20 03:22:44;;;;;;;11.95;10.63;;;;;;;11.71;91.43;98801.16;1710082;82;21022;-69
2021/10/20 03:25:13;;;;;;;13.80;10.93;;;;;;;11.73;91.59;98795.34;1706059;82;21632;-70
2021/10/20 03:27:43;;;;;;;12.98;11.12;;;;;;;11.77;91.59;98787.67;1705987;81;21948;-71
2021/10/20 03:30:12;;;;;;;12.25;10.85;;;;;;;11.81;91.71;98795.66;1721933;82;21112;-70
2021/10/20 03:32:39;;;;;;;12.60;11.30;;;;;;;11.84;91.77;98788.92;1717385;81;21135;-70
2021/10/20 03:35:07;;;;;;;11.60;10.40;;;;;;;11.86;91.72;98786.25;1695923;83;21506;-70
2021/10/20 03:37:33;;;;;;;13.15;10.23;;;;;;;11.90;91.74;98782.47;1717124;81;21029;-70
2021/10/20 03:40:04;;;;;;;11.33;10.15;;;;;;;11.90;91.71;98777.71;1714256;81;21205;-70
2021/10/20 03:42:31;;;;;;;14.85;12.35;;;;;;;11.90;91.69;98776.41;1714326;81;20977;-70
2021/10/20 03:44:58;;;;;;;13.58;11.48;;;;;;;11.91;91.78;98772.87;1711402;81;20981;-70
2021/10/20 03:47:26;;;;;;;12.85;11.53;;;;;;;11.91;91.83;98771.56;1716717;81;21083;-70
2021/10/20 03:49:54;;;;;;;16.73;12.30;;;;;;;11.92;91.87;98766.69;1685221;84;21077;-70
2021/10/20 03:52:22;;;;;;;14.60;12.13;;;;;;;11.92;91.94;98766.69;1713149;81;21511;-70
2021/10/20 03:54:49;;;;;;;16.85;11.97;;;;;;;11.94;91.95;98767.42;1734529;81;20985;-70
2021/10/20 03:57:16;;;;;;;13.25;11.75;;;;;;;11.95;91.94;98762.07;1732184;81;20923;-70
2021/10/20 03:59:44;;;;;;;16.65;11.85;;;;;;;11.97;92.06;98758.06;1711815;82;21044;-70
2021/10/20 04:02:13;;;;;;;12.40;11.15;;;;;;;11.99;92.14;98757.48;1717086;81;21094;-70
2021/10/20 04:04:40;;;;;;;16.62;12.63;;;;;;;12.01;92.17;98758.20;1720208;82;21161;-70
2021/10/20 04:07:07;;;;;;;14.20;12.60;;;;;;;12.04;92.20;98759.30;1717081;83;21000;-70
2021/10/20 04:09:33;;;;;;;16.13;13.50;;;;;;;12.07;92.22;98760.39;1714856;83;21035;-70
2021/10/20 04:12:00;;;;;;;14.30;12.10;;;;;;;12.07;92.24;98748.61;1715687;83;20933;-70
2021/10/20 04:14:27;;;;;;;17.33;12.97;;;;;;;12.09;92.31;98742.81;1713113;81;20935;-70
2021/10/20 04:16:53;;;;;;;16.95;12.60;;;;;;;12.12;92.34;98744.38;1720374;81;21687;-70
2021/10/20 04:19:20;;;;;;;17.23;12.30;;;;;;;12.13;92.39;98744.73;1723041;82;21473;-70
2021/10/20 04:21:47;;;;;;;16.50;13.30;;;;;;;12.14;92.47;98738.11;1695906;82;27232;-70
2021/10/20 04:24:14;;;;;;;15.23;11.57;;;;;;;12.15;92.46;98734.53;1689017;83;20998;-70
2021/10/20 04:26:41;;;;;;;15.03;13.00;;;;;;;12.17;92.46;98730.04;1695858;83;21125;-70
2021/10/20 04:29:07;;;;;;;15.85;13.18;;;;;;;12.20;92.49;98737.67;1699802;83;21111;-70
2021/10/20 04:31:34;;;;;;;16.60;13.25;;;;;;;12.21;92.65;98726.28;1702314;81;21047;-70
2021/10/20 04:34:01;;;;;;;16.23;13.20;;;;;;;12.25;92.69;98722.49;1697785;82;21547;-70
2021/10/20 04:36:27;;;;;;;13.97;12.13;;;;;;;12.25;92.69;98722.49;1688991;83;21530;-70
2021/10/20 04:38:54;;;;;;;15.68;13.53;;;;;;;12.26;92.67;98721.53;1696605;83;21028;-70
2021/10/20 04:41:21;;;;;;;16.40;13.88;;;;;;;12.29;92.74;98713.94;1697193;82;21147;-70
2021/10/20 04:43:48;;;;;;;14.53;12.93;;;;;;;12.30;92.76;98715.16;1685294;83;20997;-71
2021/10/20 04:46:14;;;;;;;19.10;13.48;;;;;;;12.33;92.81;98708.05;1692442;82;21005;-70
2021/10/20 04:48:41;;;;;;;14.33;12.83;;;;;;;12.34;92.85;98713.16;1690999;84;21128;-70
2021/10/20 04:51:08;;;;;;;15.58;12.25;;;;;;;12.35;92.90;98704.38;1691746;82;21376;-70
2021/10/20 04:53:34;;;;;;;19.33;14.57;;;;;;;12.39;92.90;98706.30;1691881;82;21087;-70
2021/10/20 04:56:01;;;;;;;17.00;13.65;;;;;;;12.40;92.92;98702.72;1701867;83;21356;-70
2021/10/20 04:58:28;;;;;;;17.27;13.90;;;;;;;12.42;92.93;98695.61;1701310;82;21021;-70
2021/10/20 05:00:54;;;;;;;15.48;12.82;;;;;;;12.43;93.04;98693.34;1694379;81;21001;-70
2021/10/20 05:03:21;;;;;;;14.23;12.60;;;;;;;12.44;93.07;98697.65;1702129;82;21058;-70
2021/10/20 05:05:48;;;;;;;14.80;13.30;;;;;;;12.47;93.08;98696.12;1690404;82;21073;-70
2021/10/20 05:08:15;;;;;;;17.85;14.53;;;;;;;12.49;93.15;98687.66;1687299;82;20954;-71
2021/10/20 05:10:41;;;;;;;16.30;14.10;;;;;;;12.52;93.11;98687.47;1681202;82;21018;-70
2021/10/20 05:13:08;;;;;;;16.50;14.13;;;;;;;12.55;93.13;98676.77;1698367;83;21909;-70
2021/10/20 05:15:35;;;;;;;16.48;13.78;;;;;;;12.56;93.15;98682.36;1686117;82;21113;-70
2021/10/20 05:18:01;;;;;;;14.70;13.13;;;;;;;12.57;93.22;98673.55;1708335;82;21068;-70
2021/10/20 05:20:28;;;;;;;21.20;12.90;;;;;;;12.59;93.26;98671.66;1713248;82;21440;-67
2021/10/20 05:23:04;;;;;;;18.03;13.97;;;;;;;12.61;93.28;98667.16;1707945;82;21014;-66
2021/10/20 05:25:31;;;;;;;18.85;16.23;;;;;;;12.62;93.22;98658.34;1705656;82;21175;-66
2021/10/20 05:27:58;;;;;;;17.92;14.05;;;;;;;12.64;93.23;98649.08;1710018;82;21069;-67
2021/10/20 05:30:24;;;;;;;19.87;14.83;;;;;;;12.64;93.29;98643.36;1699695;83;21587;-66
2021/10/20 05:32:51;;;;;;;17.57;14.85;;;;;;;12.66;93.31;98650.64;1681593;83;21029;-66
